Time;durP1;ratioP1;P1;durP2;ratioP2;P2;SDS_P1;SDS_P2;PMS_P1;PMS_P2;Temp;Humidity;BMP_temperature;BMP_pressure;BME280_temperature;BME280_humidity;BME280_pressure;Samples;Min_cycle;Max_cycle;Signal;HPM_P1;HPM_P2
2023/03/25 00:02:15;;;;;;;24.80;4.50;;;9.50;87.60;;;;;;5112821;28;20441;-77
2023/03/25 00:04:41;;;;;;;22.77;4.28;;;9.50;87.70;;;;;;5111272;28;20078;-78
2023/03/25 00:07:07;;;;;;;25.73;4.28;;;9.50;87.90;;;;;;5078815;28;20075;-78
2023/03/25 00:09:32;;;;;;;25.95;4.32;;;9.50;87.90;;;;;;5112372;28;20043;-78
2023/03/25 00:11:58;;;;;;;25.75;4.72;;;9.50;87.80;;;;;;5112388;28;20040;-78
2023/03/25 00:14:24;;;;;;;18.35;4.63;;;9.60;87.40;;;;;;5112320;28;20035;-77
2023/03/25 00:16:51;;;;;;;16.73;3.47;;;9.60;87.90;;;;;;5095659;28;20160;-77
2023/03/25 00:19:20;;;;;;;19.77;5.88;;;9.60;87.90;;;;;;5095540;28;20054;-77
2023/03/25 00:21:49;;;;;;;23.70;5.10;;;9.60;87.80;;;;;;5111401;28;20071;-78
2023/03/25 00:24:18;;;;;;;26.25;5.70;;;9.60;88.30;;;;;;5112455;28;20395;-78
2023/03/25 00:26:47;;;;;;;25.02;5.10;;;9.50;88.60;;;;;;5112176;28;20035;-77
2023/03/25 00:29:15;;;;;;;28.90;5.97;;;9.50;89.00;;;;;;5095231;28;20454;-78
2023/03/25 00:31:41;;;;;;;21.35;4.10;;;9.50;89.00;;;;;;5094794;28;20122;-78
2023/03/25 00:34:08;;;;;;;27.25;5.38;;;9.50;89.30;;;;;;5112046;28;20052;-78
2023/03/25 00:36:37;;;;;;;31.52;5.85;;;9.40;89.40;;;;;;5095391;28;20437;-77
2023/03/25 00:39:04;;;;;;;30.15;5.63;;;9.40;90.20;;;;;;5094453;28;20055;-77
2023/03/25 00:41:30;;;;;;;30.67;7.00;;;9.30;90.90;;;;;;5112061;28;20421;-77
2023/03/25 00:43:59;;;;;;;32.83;5.00;;;9.20;90.60;;;;;;5094799;28;20122;-78
2023/03/25 00:46:28;;;;;;;32.97;7.70;;;9.20;91.10;;;;;;5111695;28;20515;-76
2023/03/25 00:48:55;;;;;;;41.17;4.97;;;9.20;90.90;;;;;;5111885;28;20035;-77
2023/03/25 00:51:21;;;;;;;25.23;5.05;;;9.10;91.10;;;;;;5111764;28;20484;-78
2023/03/25 00:53:51;;;;;;;26.92;5.43;;;9.20;90.80;;;;;;5110810;28;20059;-77
2023/03/25 00:56:18;;;;;;;33.72;6.68;;;9.10;90.90;;;;;;5074641;28;20046;-77
2023/03/25 00:58:43;;;;;;;24.67;5.32;;;9.10;91.00;;;;;;5108385;28;20514;-77
2023/03/25 01:01:12;;;;;;;21.00;5.97;;;9.10;91.10;;;;;;5108210;28;20040;-77
2023/03/25 01:03:45;;;;;;;30.63;6.05;;;9.00;91.40;;;;;;5091301;28;20491;-78
2023/03/25 01:06:15;;;;;;;36.15;6.47;;;9.10;91.10;;;;;;5108499;28;20063;-78
2023/03/25 01:08:43;;;;;;;29.98;5.85;;;9.10;91.20;;;;;;5108343;28;20032;-78
2023/03/25 01:11:23;;;;;;;21.88;5.22;;;9.10;91.10;;;;;;5110869;28;20111;-77
2023/03/25 01:13:50;;;;;;;21.40;6.00;;;9.10;91.20;;;;;;5111659;28;20399;-77
2023/03/25 01:16:15;;;;;;;23.10;5.65;;;9.10;91.00;;;;;;5111600;28;20514;-78
2023/03/25 01:18:41;;;;;;;20.67;5.07;;;9.10;91.10;;;;;;5111934;28;20047;-77
2023/03/25 01:21:08;;;;;;;24.88;5.35;;;9.10;90.70;;;;;;5111407;28;20825;-79
2023/03/25 01:23:34;;;;;;;28.63;6.05;;;9.10;90.90;;;;;;5094557;28;20396;-78
2023/03/25 01:26:00;;;;;;;26.30;5.47;;;9.10;90.90;;;;;;5111667;28;20388;-76
2023/03/25 01:28:27;;;;;;;27.58;6.07;;;9.00;91.30;;;;;;5093932;28;20035;-77
2023/03/25 01:31:00;;;;;;;30.83;7.03;;;9.10;90.80;;;;;;5111576;28;20192;-77
2023/03/25 01:33:26;;;;;;;30.13;6.45;;;9.00;91.10;;;;;;5111405;28;20047;-77
2023/03/25 01:35:52;;;;;;;26.92;6.07;;;9.00;91.10;;;;;;5094687;28;20389;-78
2023/03/25 01:38:18;;;;;;;25.88;6.53;;;9.00;91.00;;;;;;5111644;28;20051;-77
2023/03/25 01:40:47;;;;;;;23.55;6.47;;;9.10;91.00;;;;;;5077577;28;20050;-77
2023/03/25 01:43:14;;;;;;;29.42;5.97;;;9.10;90.90;;;;;;5113121;28;20047;-77
2023/03/25 01:45:40;;;;;;;34.25;6.32;;;9.00;91.00;;;;;;5098350;28;20126;-77
2023/03/25 01:48:16;;;;;;;33.67;6.63;;;9.10;90.90;;;;;;5115051;28;20050;-77
2023/03/25 01:50:48;;;;;;;28.65;6.60;;;9.10;90.80;;;;;;5115180;28;20043;-78
2023/03/25 01:53:15;;;;;;;21.10;4.40;;;9.10;90.70;;;;;;5115498;28;20356;-77
2023/03/25 01:55:43;;;;;;;37.17;6.68;;;9.20;90.50;;;;;;5115264;28;20047;-78
2023/03/25 01:58:12;;;;;;;33.50;7.45;;;9.20;90.30;;;;;;5115238;28;20027;-79
2023/03/25 02:00:43;;;;;;;32.95;6.30;;;9.20;90.30;;;;;;5113508;28;20506;-77
2023/03/25 02:03:10;;;;;;;32.42;7.22;;;9.10;90.40;;;;;;5115181;28;20395;-78
2023/03/25 02:06:02;;;;;;;38.03;7.22;;;9.10;90.30;;;;;;5114799;28;20544;-78
2023/03/25 02:08:36;;;;;;;32.88;7.40;;;9.00;90.60;;;;;;5114822;28;20043;-78
2023/03/25 02:11:02;;;;;;;27.02;6.65;;;9.10;90.50;;;;;;5114963;28;20383;-78
2023/03/25 02:13:29;;;;;;;38.97;7.20;;;9.10;90.40;;;;;;5097912;28;20126;-78
2023/03/25 02:16:00;;;;;;;28.10;7.45;;;9.00;90.50;;;;;;5114085;28;20097;-78
2023/03/25 02:18:43;;;;;;;43.55;8.18;;;9.10;90.30;;;;;;5114845;28;20035;-78
2023/03/25 02:21:30;;;;;;;30.52;7.70;;;9.00;90.30;;;;;;5114595;28;20076;-77
2023/03/25 02:23:59;;;;;;;34.42;7.07;;;9.00;90.50;;;;;;5114491;28;20492;-78
2023/03/25 02:26:48;;;;;;;27.52;7.35;;;9.00;90.50;;;;;;5114411;28;20044;-78
2023/03/25 02:29:23;;;;;;;29.08;6.88;;;9.00;90.30;;;;;;5097527;28;20089;-78
2023/03/25 02:32:24;;;;;;;30.77;7.35;;;8.90;90.50;;;;;;5114451;28;20521;-77
2023/03/25 02:35:04;;;;;;;29.33;6.35;;;9.00;90.10;;;;;;5054042;28;20132;-78
2023/03/25 02:37:45;;;;;;;33.20;7.63;;;9.00;90.10;;;;;;5076884;28;20545;-78
2023/03/25 02:40:33;;;;;;;28.30;5.03;;;9.00;90.00;;;;;;5093730;28;20089;-78
2023/03/25 02:43:04;;;;;;;35.88;7.38;;;9.00;89.90;;;;;;5110764;28;20052;-78
2023/03/25 02:45:34;;;;;;;36.35;6.82;;;9.00;90.10;;;;;;5093555;28;20060;-78
2023/03/25 02:48:06;;;;;;;36.80;7.18;;;9.00;90.00;;;;;;5093825;28;20123;-78
2023/03/25 02:50:43;;;;;;;27.75;5.60;;;9.00;90.10;;;;;;5098202;28;20471;-77
2023/03/25 02:53:13;;;;;;;39.45;6.78;;;8.90;90.30;;;;;;5113501;28;20031;-77
2023/03/25 02:55:41;;;;;;;27.73;5.50;;;9.00;90.00;;;;;;5096908;28;20081;-78
2023/03/25 02:58:11;;;;;;;31.58;6.82;;;9.00;90.20;;;;;;5113768;28;20075;-79
2023/03/25 03:00:37;;;;;;;27.95;5.97;;;9.00;90.10;;;;;;5113722;28;20074;-78
2023/03/25 03:03:05;;;;;;;32.20;5.63;;;9.00;90.10;;;;;;5113624;28;20096;-78
2023/03/25 03:05:32;;;;;;;24.55;5.32;;;9.00;90.10;;;;;;5113918;28;20126;-77
2023/03/25 03:08:17;;;;;;;23.13;6.25;;;9.00;90.10;;;;;;5093048;28;20481;-77
2023/03/25 03:11:09;;;;;;;31.92;8.35;;;9.00;90.00;;;;;;5076517;28;20131;-78
2023/03/25 03:13:59;;;;;;;27.73;6.00;;;9.00;90.10;;;;;;5093112;28;20051;-78
2023/03/25 03:16:34;;;;;;;37.10;9.50;;;9.00;90.10;;;;;;5093013;28;20511;-79
2023/03/25 03:19:30;;;;;;;27.42;8.05;;;9.00;90.10;;;;;;5093267;28;20040;-77
2023/03/25 03:22:01;;;;;;;31.48;6.53;;;9.00;90.10;;;;;;5092839;28;20051;-77
2023/03/25 03:24:32;;;;;;;32.55;5.43;;;9.00;89.90;;;;;;5085406;28;20040;-77
2023/03/25 03:27:03;;;;;;;35.28;6.20;;;9.00;89.90;;;;;;5113583;28;20089;-78
2023/03/25 03:29:43;;;;;;;27.65;5.25;;;9.10;89.80;;;;;;5113292;28;20502;-79
2023/03/25 03:32:15;;;;;;;24.33;5.90;;;9.10;90.00;;;;;;5113348;28;20426;-77
2023/03/25 03:35:00;;;;;;;25.15;5.10;;;9.10;89.70;;;;;;5113677;28;20059;-76
2023/03/25 03:37:36;;;;;;;29.40;6.15;;;9.10;89.80;;;;;;5096127;28;20050;-78
2023/03/25 03:40:05;;;;;;;31.15;6.30;;;9.10;89.80;;;;;;5113170;28;20114;-79
2023/03/25 03:42:44;;;;;;;29.17;6.30;;;9.10;89.70;;;;;;5111822;28;20499;-78
2023/03/25 03:45:20;;;;;;;24.80;5.85;;;9.10;89.80;;;;;;5112693;28;20534;-78
2023/03/25 03:47:50;;;;;;;30.77;6.85;;;9.10;90.00;;;;;;5112896;28;20506;-78
2023/03/25 03:50:25;;;;;;;26.58;6.18;;;9.10;89.80;;;;;;5112724;28;20050;-78
2023/03/25 03:53:09;;;;;;;29.77;6.55;;;9.10;89.90;;;;;;5112987;28;20042;-78
2023/03/25 03:55:40;;;;;;;;;;;9.10;89.90;;;;;;5096100;28;20046;-77
2023/03/25 03:58:24;;;;;;;32.03;7.53;;;9.10;89.90;;;;;;5111837;28;19916;-79
2023/03/25 04:01:02;;;;;;;33.08;5.22;;;9.10;89.80;;;;;;5112518;28;20448;-78
2023/03/25 04:03:50;;;;;;;37.78;6.47;;;9.10;90.00;;;;;;5112836;28;20410;-77
2023/03/25 04:06:40;;;;;;;29.33;6.25;;;9.10;89.90;;;;;;5112203;28;20382;-79
2023/03/25 04:09:18;;;;;;;27.98;6.13;;;9.10;89.90;;;;;;5112595;28;20032;-78
2023/03/25 04:11:52;;;;;;;26.08;6.55;;;9.00;90.00;;;;;;5111387;28;20044;-77
2023/03/25 04:14:19;;;;;;;30.33;7.80;;;9.00;90.00;;;;;;5112448;28;20051;-77
2023/03/25 04:16:44;;;;;;;25.77;5.13;;;9.10;89.80;;;;;;5096047;28;20383;-78
2023/03/25 04:19:17;;;;;;;29.70;6.15;;;9.10;89.80;;;;;;5095370;28;20040;-77
2023/03/25 04:21:44;;;;;;;26.13;5.80;;;9.10;90.00;;;;;;5096346;28;20070;-77
2023/03/25 04:24:10;;;;;;;30.10;7.88;;;9.10;90.00;;;;;;5112403;28;20043;-77
2023/03/25 04:26:36;;;;;;;31.98;5.72;;;9.10;89.90;;;;;;5078363;28;20032;-77
2023/03/25 04:29:04;;;;;;;28.90;5.88;;;9.10;90.00;;;;;;5111096;28;20043;-78
2023/03/25 04:31:30;;;;;;;31.42;7.22;;;9.10;89.90;;;;;;5112122;28;20036;-77
2023/03/25 04:33:57;;;;;;;32.17;7.18;;;9.10;89.90;;;;;;5112283;28;20039;-79
2023/03/25 04:36:27;;;;;;;24.70;6.45;;;9.10;89.80;;;;;;5112319;28;20388;-78
2023/03/25 04:38:54;;;;;;;30.35;5.78;;;9.10;89.70;;;;;;5112225;28;20048;-79
2023/03/25 04:41:21;;;;;;;32.38;5.68;;;9.10;89.80;;;;;;5111897;28;20051;-77
2023/03/25 04:43:47;;;;;;;25.20;5.07;;;9.00;90.10;;;;;;5107714;28;20054;-79
2023/03/25 04:46:14;;;;;;;27.08;6.30;;;9.00;89.70;;;;;;5091419;28;20048;-77
2023/03/25 04:48:43;;;;;;;32.75;6.90;;;9.00;89.80;;;;;;5091562;28;20076;-78
2023/03/25 04:51:11;;;;;;;25.42;6.03;;;8.90;89.90;;;;;;5091417;28;20040;-78
2023/03/25 04:53:37;;;;;;;34.35;7.97;;;8.80;89.90;;;;;;5091699;28;20043;-79
2023/03/25 04:56:04;;;;;;;28.67;7.78;;;8.80;90.10;;;;;;5091507;28;20048;-78
2023/03/25 04:58:31;;;;;;;28.30;6.20;;;8.80;89.90;;;;;;5092188;28;20183;-79
2023/03/25 05:01:04;;;;;;;28.95;5.60;;;8.80;90.00;;;;;;5111948;28;20039;-78
2023/03/25 05:03:31;;;;;;;33.47;6.65;;;8.80;89.80;;;;;;5111978;28;20044;-79
2023/03/25 05:05:57;;;;;;;28.83;5.45;;;8.80;89.90;;;;;;5111710;28;20597;-77
2023/03/25 05:08:23;;;;;;;27.02;7.40;;;8.70;90.10;;;;;;5111720;28;20040;-78
2023/03/25 05:10:49;;;;;;;30.20;6.55;;;8.80;89.90;;;;;;5094770;28;20043;-78
2023/03/25 05:13:15;;;;;;;37.83;7.22;;;8.70;90.10;;;;;;5111923;28;20438;-78
2023/03/25 05:15:42;;;;;;;36.42;6.70;;;8.60;90.30;;;;;;5111227;28;20123;-77
2023/03/25 05:18:09;;;;;;;29.20;5.65;;;8.70;90.20;;;;;;5098934;28;20086;-78
2023/03/25 05:20:43;;;;;;;27.15;6.35;;;8.60;90.30;;;;;;5115539;28;20043;-78
2023/03/25 05:23:15;;;;;;;30.63;6.43;;;8.60;90.10;;;;;;5115719;28;20040;-78
2023/03/25 05:25:41;;;;;;;33.63;6.30;;;8.60;90.20;;;;;;5115222;28;20039;-78
2023/03/25 05:28:12;;;;;;;27.83;6.78;;;8.60;90.30;;;;;;5098581;28;20527;-78
2023/03/25 05:30:40;;;;;;;28.42;6.95;;;8.60;90.50;;;;;;5084297;28;20070;-78
2023/03/25 05:33:10;;;;;;;34.35;6.57;;;8.70;90.40;;;;;;5095310;28;20040;-77
2023/03/25 05:35:38;;;;;;;35.50;6.60;;;8.70;90.40;;;;;;5095081;28;20071;-78
2023/03/25 05:38:08;;;;;;;40.00;8.00;;;8.70;90.40;;;;;;5078206;28;20122;-78
2023/03/25 05:40:35;;;;;;;36.28;8.43;;;8.80;90.20;;;;;;5077987;28;20127;-78
2023/03/25 05:43:02;;;;;;;38.35;6.93;;;8.70;90.70;;;;;;5078500;28;20039;-77
2023/03/25 05:45:28;;;;;;;26.35;5.32;;;8.70;90.70;;;;;;5101361;28;20389;-77
2023/03/25 05:47:53;;;;;;;30.67;5.95;;;8.70;90.50;;;;;;5098175;28;20035;-78
2023/03/25 05:50:20;;;;;;;23.63;6.40;;;8.80;90.40;;;;;;5115157;28;20036;-77
2023/03/25 05:52:48;;;;;;;36.40;6.90;;;8.80;90.20;;;;;;5098162;28;20552;-78
2023/03/25 05:55:20;;;;;;;34.53;7.18;;;8.80;90.10;;;;;;5116583;28;20044;-77
2023/03/25 05:57:46;;;;;;;32.08;6.78;;;8.80;90.00;;;;;;5116597;28;20406;-77
2023/03/25 06:00:14;;;;;;;28.63;6.30;;;8.80;89.80;;;;;;5099581;28;20043;-77
2023/03/25 06:02:41;;;;;;;25.10;5.78;;;8.90;89.40;;;;;;5117283;28;20040;-78
2023/03/25 06:05:14;;;;;;;27.40;4.97;;;8.90;89.20;;;;;;5117444;28;20086;-77
2023/03/25 06:07:44;;;;;;;32.65;6.05;;;8.90;89.30;;;;;;5119401;28;20040;-76
2023/03/25 06:10:11;;;;;;;31.92;6.35;;;9.00;88.80;;;;;;5115801;28;20445;-77
2023/03/25 06:12:38;;;;;;;25.27;4.88;;;9.00;88.30;;;;;;5114693;28;20051;-78
2023/03/25 06:15:08;;;;;;;17.40;5.05;;;9.00;88.00;;;;;;5098067;28;20376;-79
2023/03/25 06:17:37;;;;;;;25.60;5.28;;;9.00;88.00;;;;;;5113775;28;20031;-77
2023/03/25 06:20:08;;;;;;;21.88;4.15;;;9.00;87.80;;;;;;5114561;28;20107;-78
2023/03/25 06:22:36;;;;;;;24.88;4.53;;;9.00;87.90;;;;;;5114637;28;20387;-77
2023/03/25 06:25:02;;;;;;;21.25;5.32;;;9.00;87.80;;;;;;5114494;28;20040;-78
2023/03/25 06:27:28;;;;;;;15.32;3.53;;;9.00;87.70;;;;;;5113691;28;20115;-78
2023/03/25 06:29:54;;;;;;;27.75;4.88;;;9.00;87.80;;;;;;5114296;28;20189;-77
2023/03/25 06:32:20;;;;;;;29.98;6.93;;;9.00;87.80;;;;;;5096572;28;20369;-77
2023/03/25 06:34:45;;;;;;;24.85;5.07;;;9.00;88.00;;;;;;5097445;28;20068;-78
2023/03/25 06:37:14;;;;;;;13.90;3.88;;;9.00;88.20;;;;;;5114324;28;20051;-77
2023/03/25 06:39:40;;;;;;;16.42;3.85;;;9.10;88.00;;;;;;5097252;28;20046;-77
2023/03/25 06:42:06;;;;;;;21.58;4.65;;;9.00;88.20;;;;;;5114101;28;20048;-76
2023/03/25 06:44:32;;;;;;;18.50;3.85;;;9.10;88.10;;;;;;5114206;28;20039;-77
2023/03/25 06:46:59;;;;;;;20.65;4.68;;;9.00;88.40;;;;;;5096924;28;20216;-77
2023/03/25 06:49:25;;;;;;;14.32;3.63;;;9.00;88.30;;;;;;5079843;28;20046;-78
2023/03/25 06:51:50;;;;;;;18.65;4.28;;;8.90;89.40;;;;;;5113944;28;20403;-77
2023/03/25 06:54:17;;;;;;;30.10;5.97;;;8.90;89.40;;;;;;5114003;28;20097;-78
2023/03/25 06:56:43;;;;;;;21.17;3.85;;;8.90;89.60;;;;;;5097107;28;20043;-77
2023/03/25 06:59:08;;;;;;;19.45;3.30;;;8.90;89.50;;;;;;5097243;28;20399;-77
2023/03/25 07:01:34;;;;;;;20.42;3.85;;;8.90;89.60;;;;;;5113742;28;20042;-78
2023/03/25 07:04:00;;;;;;;22.30;3.55;;;9.00;89.50;;;;;;5113633;28;20050;-77
2023/03/25 07:06:25;;;;;;;12.88;3.45;;;9.00;89.20;;;;;;5113142;28;20039;-79
2023/03/25 07:08:51;;;;;;;19.20;3.60;;;9.00;89.10;;;;;;5096714;28;20035;-79
2023/03/25 07:11:31;;;;;;;18.88;4.32;;;9.00;89.00;;;;;;5113482;28;20047;-78
2023/03/25 07:13:56;;;;;;;19.27;4.15;;;9.00;89.00;;;;;;5113989;28;20054;-77
2023/03/25 07:16:22;;;;;;;17.52;3.67;;;9.00;88.90;;;;;;5096726;28;20499;-77
2023/03/25 07:18:50;;;;;;;17.05;4.63;;;9.00;88.80;;;;;;5113954;28;20138;-79
2023/03/25 07:21:16;;;;;;;25.25;4.47;;;9.00;88.70;;;;;;5113528;28;20039;-80
2023/03/25 07:23:42;;;;;;;16.25;4.20;;;9.00;89.30;;;;;;5095689;28;20403;-78
2023/03/25 07:26:07;;;;;;;19.95;5.57;;;8.90;89.40;;;;;;5096408;28;20040;-78
2023/03/25 07:28:33;;;;;;;15.75;3.63;;;8.80;89.50;;;;;;5096410;28;20433;-78
2023/03/25 07:30:59;;;;;;;17.80;4.05;;;8.90;89.60;;;;;;5096291;28;20118;-78
2023/03/25 07:33:25;;;;;;;11.90;4.32;;;8.80;89.80;;;;;;5079764;28;20039;-77
2023/03/25 07:35:50;;;;;;;16.00;3.33;;;8.90;89.90;;;;;;5096220;28;20042;-77
2023/03/25 07:38:16;;;;;;;19.45;4.22;;;8.80;90.20;;;;;;5095945;28;20040;-75
2023/03/25 07:40:42;;;;;;;12.23;3.42;;;8.60;90.90;;;;;;5111613;28;20036;-78
2023/03/25 07:43:07;;;;;;;19.73;4.13;;;8.70;90.90;;;;;;5079495;28;20130;-77
2023/03/25 07:45:33;;;;;;;25.80;4.43;;;8.50;92.00;;;;;;5112649;28;20054;-79
2023/03/25 07:48:00;;;;;;;19.83;4.13;;;8.50;91.80;;;;;;5112772;28;20043;-78
2023/03/25 07:50:26;;;;;;;19.40;4.30;;;8.50;92.40;;;;;;5112700;28;20067;-76
2023/03/25 07:52:52;;;;;;;19.30;3.70;;;8.50;92.10;;;;;;5096018;28;20082;-77
2023/03/25 07:55:18;;;;;;;19.83;3.92;;;8.50;92.20;;;;;;5108246;28;20040;-78
2023/03/25 07:57:44;;;;;;;23.35;3.90;;;8.60;92.00;;;;;;5092224;28;20121;-76
2023/03/25 08:00:11;;;;;;;20.38;4.40;;;8.60;92.00;;;;;;5092393;28;20061;-77
2023/03/25 08:02:38;;;;;;;19.58;4.53;;;8.60;91.80;;;;;;5109459;28;20151;-78
2023/03/25 08:05:04;;;;;;;20.60;5.82;;;8.70;91.60;;;;;;5092097;28;20051;-77
2023/03/25 08:07:30;;;;;;;19.23;6.32;;;8.80;91.30;;;;;;5059057;28;20122;-76
2023/03/25 08:09:56;;;;;;;16.83;4.85;;;8.80;91.50;;;;;;5108998;28;20047;-77
2023/03/25 08:12:22;;;;;;;23.20;5.70;;;8.90;91.30;;;;;;5104402;28;20118;-75
2023/03/25 08:14:48;;;;;;;16.83;4.43;;;9.00;91.50;;;;;;5095425;28;20487;-77
2023/03/25 08:17:13;;;;;;;23.75;4.53;;;9.00;91.30;;;;;;5078625;28;20047;-78
2023/03/25 08:19:39;;;;;;;16.45;5.00;;;9.00;91.20;;;;;;5112313;28;20043;-78
2023/03/25 08:22:05;;;;;;;18.20;3.78;;;9.10;91.30;;;;;;5112088;28;20043;-78
2023/03/25 08:24:31;;;;;;;21.67;3.67;;;9.10;90.90;;;;;;5095115;28;20043;-78
2023/03/25 08:26:59;;;;;;;24.27;5.15;;;9.10;90.80;;;;;;5095009;28;20046;-77
2023/03/25 08:29:26;;;;;;;13.73;3.30;;;9.20;90.70;;;;;;5111283;28;20223;-77
2023/03/25 08:31:52;;;;;;;24.35;6.05;;;9.40;90.50;;;;;;5095582;28;20377;-78
2023/03/25 08:34:19;;;;;;;16.15;3.65;;;9.50;90.20;;;;;;5095027;28;20514;-77
2023/03/25 08:36:45;;;;;;;17.80;3.40;;;9.50;89.50;;;;;;5095015;28;20051;-78
2023/03/25 08:39:16;;;;;;;17.30;4.43;;;9.60;88.40;;;;;;5112016;28;20097;-77
2023/03/25 08:41:44;;;;;;;21.98;4.22;;;9.60;88.00;;;;;;5095181;28;20040;-78
2023/03/25 08:44:10;;;;;;;20.38;3.10;;;9.60;87.80;;;;;;5111794;28;20090;-77
2023/03/25 08:46:37;;;;;;;17.63;3.50;;;9.60;88.00;;;;;;5094082;28;20047;-78
2023/03/25 08:49:04;;;;;;;21.83;4.10;;;9.60;88.00;;;;;;5112128;28;20040;-77
2023/03/25 08:51:29;;;;;;;26.98;5.82;;;9.60;87.90;;;;;;5111188;28;20483;-78
2023/03/25 08:53:55;;;;;;;24.13;3.90;;;9.70;87.50;;;;;;5111864;28;20045;-78
2023/03/25 08:56:21;;;;;;;20.45;4.07;;;9.70;87.00;;;;;;5111711;28;20093;-79
2023/03/25 08:58:46;;;;;;;19.13;4.82;;;9.70;87.20;;;;;;5111615;28;20051;-76
2023/03/25 09:01:12;;;;;;;18.02;3.22;;;9.80;87.40;;;;;;5111877;28;20048;-77
2023/03/25 09:03:39;;;;;;;20.63;3.58;;;9.90;87.10;;;;;;5110798;28;20566;-78
2023/03/25 09:06:06;;;;;;;23.20;4.53;;;9.80;86.90;;;;;;5111634;28;20047;-79
2023/03/25 09:08:32;;;;;;;17.98;4.72;;;9.90;86.60;;;;;;5094671;28;20040;-76
2023/03/25 09:10:58;;;;;;;25.65;4.47;;;10.00;86.50;;;;;;5094569;28;20173;-77
2023/03/25 09:13:24;;;;;;;12.80;2.78;;;9.90;86.50;;;;;;5111858;28;20127;-78
2023/03/25 09:15:50;;;;;;;23.40;3.88;;;10.00;86.20;;;;;;5078114;28;20479;-78
2023/03/25 09:18:16;;;;;;;16.63;3.95;;;9.90;85.80;;;;;;5094518;28;20539;-77
2023/03/25 09:20:47;;;;;;;8.38;2.35;;;10.00;85.80;;;;;;5111545;28;20140;-78
2023/03/25 09:23:14;;;;;;;17.15;4.35;;;9.90;85.80;;;;;;5110872;28;20395;-77
2023/03/25 09:25:39;;;;;;;16.83;3.42;;;9.90;85.00;;;;;;5111418;28;20047;-78
2023/03/25 09:28:05;;;;;;;13.40;4.43;;;9.90;85.50;;;;;;5111489;28;20046;-79
2023/03/25 09:30:31;;;;;;;19.13;3.65;;;9.90;85.80;;;;;;5094741;28;20048;-80
2023/03/25 09:32:57;;;;;;;16.83;3.55;;;9.90;86.00;;;;;;5111408;28;20470;-78
2023/03/25 09:35:23;;;;;;;24.33;4.95;;;9.90;86.30;;;;;;5111355;28;20046;-79
2023/03/25 09:37:48;;;;;;;16.30;5.57;;;9.90;85.60;;;;;;5098702;28;20074;-76
2023/03/25 09:40:17;;;;;;;16.75;3.78;;;9.90;85.70;;;;;;5074211;28;20048;-78
2023/03/25 09:42:58;;;;;;;19.02;3.80;;;9.90;85.60;;;;;;5108225;28;20044;-77
2023/03/25 09:45:47;;;;;;;12.15;3.00;;;10.00;85.30;;;;;;5090739;28;20492;-79
2023/03/25 09:48:35;;;;;;;16.38;3.53;;;10.00;85.10;;;;;;5090843;28;20101;-77
2023/03/25 09:51:30;;;;;;;19.13;3.83;;;10.10;85.20;;;;;;5090828;28;20032;-77
2023/03/25 09:54:18;;;;;;;33.83;6.05;;;10.10;85.30;;;;;;5112044;28;20050;-77
2023/03/25 09:56:44;;;;;;;16.13;3.17;;;10.10;84.70;;;;;;5111196;28;20047;-77
2023/03/25 09:59:20;;;;;;;13.90;2.80;;;10.20;84.10;;;;;;5111959;28;20051;-79
2023/03/25 10:02:05;;;;;;;13.23;3.20;;;10.20;84.10;;;;;;5111978;28;20103;-78
2023/03/25 10:05:09;;;;;;;17.73;4.32;;;10.20;84.50;;;;;;5115357;28;20040;-78
2023/03/25 10:07:53;;;;;;;15.05;3.63;;;10.40;84.90;;;;;;5116104;28;20047;-78
2023/03/25 10:10:38;;;;;;;21.70;4.05;;;10.40;84.40;;;;;;5115269;28;20047;-76
2023/03/25 10:13:16;;;;;;;17.13;4.43;;;10.50;84.10;;;;;;5115900;28;20035;-77
2023/03/25 10:16:01;;;;;;;16.35;3.90;;;10.50;84.00;;;;;;5115719;28;20046;-79
2023/03/25 10:18:41;;;;;;;11.77;3.25;;;10.50;83.30;;;;;;5115419;28;20035;-77
2023/03/25 10:21:38;;;;;;;14.70;4.18;;;10.60;82.80;;;;;;5095198;28;20039;-77
2023/03/25 10:24:12;;;;;;;18.70;5.18;;;10.70;82.80;;;;;;5112049;28;20119;-77
2023/03/25 10:26:48;;;;;;;17.33;4.30;;;10.70;82.90;;;;;;5092389;28;20092;-78
2023/03/25 10:29:26;;;;;;;19.50;4.05;;;10.70;82.50;;;;;;5094791;28;20498;-77
2023/03/25 10:31:56;;;;;;;16.80;2.85;;;10.90;82.40;;;;;;5114667;28;20051;-77
2023/03/25 10:34:38;;;;;;;16.65;4.03;;;11.00;81.70;;;;;;5115336;28;20110;-77
2023/03/25 10:37:11;;;;;;;17.40;3.35;;;11.00;81.80;;;;;;5109436;28;20504;-77
2023/03/25 10:39:44;;;;;;;15.57;3.30;;;11.00;81.60;;;;;;5115133;28;20058;-78
2023/03/25 10:42:34;;;;;;;12.05;3.28;;;11.20;82.10;;;;;;5125225;27;20111;-78
2023/03/25 10:45:00;;;;;;;16.63;3.10;;;11.20;80.40;;;;;;5120404;27;20108;-79
2023/03/25 10:47:32;;;;;;;20.30;4.65;;;11.20;80.00;;;;;;5114814;27;20117;-77
2023/03/25 10:49:58;;;;;;;12.20;3.47;;;11.30;79.80;;;;;;5118120;27;20047;-78
2023/03/25 10:52:24;;;;;;;16.55;3.80;;;11.30;78.60;;;;;;5136526;27;20050;-79
2023/03/25 10:54:55;;;;;;;13.30;3.58;;;11.30;78.80;;;;;;5117799;27;20035;-77
2023/03/25 10:57:26;;;;;;;14.60;3.85;;;11.30;79.80;;;;;;5101134;27;20046;-77
2023/03/25 11:00:22;;;;;;;15.02;3.65;;;11.30;79.70;;;;;;5098195;27;20046;-77
2023/03/25 11:02:48;;;;;;;15.10;4.25;;;11.40;79.80;;;;;;5115207;27;20039;-78
2023/03/25 11:05:18;;;;;;;12.73;3.53;;;11.50;79.50;;;;;;5117598;27;20039;-78
2023/03/25 11:08:00;;;;;;;16.40;3.95;;;11.50;79.70;;;;;;5101221;27;20392;-78
2023/03/25 11:10:33;;;;;;;15.43;4.20;;;11.60;79.70;;;;;;5118083;27;20031;-75
2023/03/25 11:13:05;;;;;;;17.08;4.28;;;11.60;80.10;;;;;;5117816;27;20498;-75
2023/03/25 11:15:35;;;;;;;18.67;5.63;;;11.60;79.20;;;;;;5117464;27;20066;-75
2023/03/25 11:18:30;;;;;;;20.70;3.97;;;11.50;79.80;;;;;;5111759;28;20040;-77
2023/03/25 11:21:02;;;;;;;25.95;4.40;;;11.60;79.50;;;;;;5097312;28;20043;-76
2023/03/25 11:23:34;;;;;;;21.20;4.65;;;11.50;78.80;;;;;;5097176;28;20598;-77
2023/03/25 11:26:19;;;;;;;15.15;3.35;;;11.30;79.30;;;;;;5080277;28;20070;-77
2023/03/25 11:29:00;;;;;;;15.48;3.78;;;11.20;80.30;;;;;;5097319;28;20455;-74
2023/03/25 11:31:29;;;;;;;13.15;3.17;;;11.40;80.20;;;;;;5117004;27;20057;-79
2023/03/25 11:34:18;;;;;;;15.02;4.60;;;11.50;78.60;;;;;;5116086;27;20047;-77
2023/03/25 11:37:27;;;;;;;12.88;3.40;;;11.50;79.30;;;;;;5117394;27;20566;-78
2023/03/25 11:39:54;;;;;;;12.07;3.25;;;11.50;79.10;;;;;;5113312;27;20086;-79
2023/03/25 11:42:37;;;;;;;14.02;4.07;;;11.50;79.30;;;;;;5116262;27;20050;-78
2023/03/25 11:45:03;;;;;;;12.38;4.15;;;11.60;79.40;;;;;;5096699;27;20118;-77
2023/03/25 11:47:32;;;;;;;14.07;3.22;;;11.60;78.50;;;;;;5099117;27;20099;-78
2023/03/25 11:49:59;;;;;;;12.93;3.20;;;11.60;78.60;;;;;;5116267;27;20079;-77
2023/03/25 11:52:54;;;;;;;10.43;3.22;;;11.60;79.10;;;;;;5115230;27;20395;-77
2023/03/25 11:55:44;;;;;;;14.80;3.35;;;11.70;78.50;;;;;;5113254;27;20062;-77
2023/03/25 11:58:21;;;;;;;11.43;3.08;;;11.70;78.00;;;;;;5116438;27;20152;-77
2023/03/25 12:00:49;;;;;;;14.52;3.60;;;11.80;77.40;;;;;;5116142;27;20069;-78
2023/03/25 12:03:21;;;;;;;11.60;3.47;;;11.90;77.00;;;;;;5116148;27;20050;-77
2023/03/25 12:06:27;;;;;;;8.93;3.65;;;12.00;76.90;;;;;;5114825;27;20058;-76
2023/03/25 12:08:57;;;;;;;15.43;4.50;;;12.00;76.70;;;;;;5014370;28;20041;-78
2023/03/25 12:11:32;;;;;;;10.18;3.28;;;11.90;75.80;;;;;;5014443;28;20048;-77
2023/03/25 12:14:14;;;;;;;15.57;3.63;;;11.70;76.30;;;;;;5072393;27;20512;-77
2023/03/25 12:16:42;;;;;;;16.85;3.88;;;11.60;77.00;;;;;;5116044;27;20070;-77
2023/03/25 12:19:43;;;;;;;11.88;3.22;;;11.50;78.20;;;;;;5098812;27;20571;-77
2023/03/25 12:22:47;;;;;;;15.65;3.67;;;11.50;78.50;;;;;;5060298;27;20054;-77
2023/03/25 12:25:37;;;;;;;17.15;4.07;;;11.40;78.10;;;;;;5111767;28;20052;-78
2023/03/25 12:28:37;;;;;;;12.77;3.92;;;11.30;78.00;;;;;;5078404;28;20046;-77
2023/03/25 12:31:19;;;;;;;11.63;4.07;;;11.10;77.70;;;;;;5112121;28;20036;-76
2023/03/25 12:34:12;;;;;;;13.68;3.22;;;11.10;78.40;;;;;;5112102;28;20032;-77
2023/03/25 12:36:53;;;;;;;10.90;3.50;;;11.00;79.10;;;;;;5112022;28;20487;-77
2023/03/25 12:39:40;;;;;;;12.15;4.10;;;11.00;78.30;;;;;;5114204;27;20027;-76
2023/03/25 12:42:20;;;;;;;14.65;4.35;;;10.90;79.50;;;;;;5115632;27;20465;-76
2023/03/25 12:44:52;;;;;;;11.63;3.45;;;10.90;80.20;;;;;;5115257;27;20131;-78
2023/03/25 12:47:35;;;;;;;14.43;4.28;;;10.80;82.00;;;;;;5098564;27;20072;-76
2023/03/25 12:50:30;;;;;;;13.45;3.75;;;10.60;82.70;;;;;;5115250;28;20126;-76
2023/03/25 12:53:03;;;;;;;16.05;3.53;;;10.30;84.60;;;;;;5098261;27;20070;-76
2023/03/25 12:56:16;;;;;;;19.88;3.65;;;10.30;85.50;;;;;;5114129;27;20042;-76
2023/03/25 12:59:08;;;;;;;17.45;3.63;;;10.30;85.80;;;;;;5038961;28;20043;-76
2023/03/25 13:02:05;;;;;;;10.02;2.78;;;10.40;85.60;;;;;;5115082;28;20467;-76
2023/03/25 13:04:47;;;;;;;9.88;3.33;;;10.30;84.80;;;;;;5115240;28;20420;-76
2023/03/25 13:07:24;;;;;;;8.35;2.38;;;10.40;84.90;;;;;;5115300;28;20043;-76
2023/03/25 13:10:02;;;;;;;10.63;3.22;;;10.40;84.70;;;;;;5115078;28;20099;-76
2023/03/25 13:12:43;;;;;;;13.00;2.53;;;10.40;83.40;;;;;;5113024;28;20122;-75